Flugplatz Osnabrück-Atterheide

Für EDWO sind keine METAR/TAF Berichte vorhanden.
Es werden die Flugwettermeldungen vom Flugplatz Münster Osnabrück in 25 km Entfernung angezeigt.

Bericht für EDDG

vom 21.07. um 22:50 UTC

variable Windrichtung mit 1 kt

Sichtweite 10 km oder mehr

gering bewölkt in 4600 ft

Temperatur 14.0°C

Taupunkt 12.0°C

Luftfeuchtigkeit 88%

Luftdruck 1023 hPa

keine wesentliche Wetteränderung innerhalb den nächsten 2 Stunden zu erwarten

EDDG 212250Z VRB01KT 9999 FEW046 14/12 Q1023 NOSIG

Prognose für EDDG

vom 21.07. um 00:00 UTC

Am 21.07. zwischen 00:00 und 00:00 UTC übergehend zu

variable Windrichtung mit 3 kt

Sichtweite 10 km oder mehr

keine signifikanten Wettererscheinungen

keine Wolken


Am 21.07. zwischen 00:00 UTC und 00:00 UTC

Wind 6 kt aus 300°

Sichtweite 10 km oder mehr

keine signifikanten Wettererscheinungen

keine Wolken


Zwischen 00:00 und 00:00 UTC übergehend zu

Wind 7 kt aus 220°

Sichtweite 10 km oder mehr

keine signifikanten Wettererscheinungen

keine Wolken


Zwischen 00:00 und 00:00 UTC übergehend zu

Wind 12 kt aus 250°

Sichtweite 10 km oder mehr

keine signifikanten Wettererscheinungen

keine Wolken

TAF EDDG 211700Z 2118/2218 30006KT CAVOK BECMG 2118/2121 VRB03KT BECMG 2206/2209 22007KT BECMG 2209/2212 25012KT
Impressum